Time;durP1;ratioP1;P1;durP2;ratioP2;P2;SDS_P1;SDS_P2;PMS_P1;PMS_P2;Temp;Humidity;BMP_temperature;BMP_pressure;BME280_temperature;BME280_humidity;BME280_pressure;Samples;Min_cycle;Max_cycle;Signal;HPM_P1;HPM_P2
2022/01/24 00:01:43;;;;;;;16.67;12.73;;;;;;;;;;5038045;28;20045;-76
2022/01/24 00:04:10;;;;;;;14.02;10.85;;;;;;;;;;5040140;28;20048;-77
2022/01/24 00:06:39;;;;;;;13.50;12.05;;;;;;;;;;5041728;28;20132;-75
2022/01/24 00:09:08;;;;;;;15.30;12.60;;;;;;;;;;5040957;28;20375;-76
2022/01/24 00:27:59;;;;;;;14.05;11.57;;;;;;;;;;5052304;28;20119;-75
2022/01/24 00:30:26;;;;;;;15.48;12.50;;;;;;;;;;5044574;28;20512;-76
2022/01/24 00:32:54;;;;;;;13.02;11.55;;;;;;;;;;5048978;28;20044;-75
2022/01/24 00:35:22;;;;;;;14.02;12.52;;;;;;;;;;5050592;28;20045;-75
2022/01/24 00:37:49;;;;;;;13.73;11.38;;;;;;;;;;5036624;28;20040;-75
2022/01/24 00:40:17;;;;;;;16.58;14.07;;;;;;;;;;5045534;28;20493;-76
2022/01/24 00:42:57;;;;;;;16.42;13.48;;;;;;;;;;5049905;28;20051;-75
2022/01/24 00:53:30;;;;;;;15.63;13.60;;;;;;;;;;5049572;28;20167;-75
2022/01/24 00:55:57;;;;;;;16.10;13.45;;;;;;;;;;5054967;28;20037;-74
2022/01/24 00:58:25;;;;;;;16.55;13.15;;;;;;;;;;5040790;28;20037;-75
2022/01/24 01:00:52;;;;;;;18.95;15.13;;;;;;;;;;5049640;28;20123;-76
2022/01/24 01:03:20;;;;;;;15.48;13.38;;;;;;;;;;5049552;28;20045;-76
2022/01/24 01:06:01;;;;;;;19.75;14.70;;;;;;;;;;5028984;28;20129;-75
2022/01/24 01:19:35;;;;;;;14.45;12.90;;;;;;;;;;5046684;28;20065;-76
2022/01/24 01:22:03;;;;;;;21.58;14.88;;;;;;;;;;5049843;28;20104;-74
2022/01/24 01:24:35;;;;;;;18.10;14.38;;;;;;;;;;5050763;28;20041;-74
2022/01/24 01:27:08;;;;;;;;;;;;;;;;;;5051557;28;20041;-75
2022/01/24 01:30:23;;;;;;;13.15;10.50;;;;;;;;;;5049235;28;20119;-75
2022/01/24 01:32:56;;;;;;;13.30;11.07;;;;;;;;;;5040858;28;20531;-76
2022/01/24 01:56:43;;;;;;;13.32;11.40;;;;;;;;;;5032213;28;20045;-75
2022/01/24 01:59:10;;;;;;;15.05;11.15;;;;;;;;;;5030892;28;20040;-74
2022/01/24 02:01:38;;;;;;;12.50;10.90;;;;;;;;;;5049396;28;20041;-75
2022/01/24 02:04:05;;;;;;;12.02;10.73;;;;;;;;;;5031201;28;20552;-75
2022/01/24 02:06:33;;;;;;;15.88;13.52;;;;;;;;;;5047645;28;20037;-75
2022/01/24 02:09:04;;;;;;;15.52;12.50;;;;;;;;;;5048487;28;20055;-75
2022/01/24 02:11:32;;;;;;;13.82;10.18;;;;;;;;;;5049099;28;20128;-74
2022/01/24 02:14:04;;;;;;;21.00;15.68;;;;;;;;;;5048284;28;20045;-75
2022/01/24 02:16:45;;;;;;;14.07;12.00;;;;;;;;;;5049065;28;20125;-74
2022/01/24 02:25:06;;;;;;;17.77;13.45;;;;;;;;;;5051887;28;20132;-75
2022/01/24 02:27:44;;;;;;;16.42;13.10;;;;;;;;;;5066236;28;20036;-75
2022/01/24 02:30:36;;;;;;;15.95;13.95;;;;;;;;;;5029209;28;20515;-75
2022/01/24 02:32:59;;;;;;;15.93;11.10;;;;;;;;;;5047891;28;20049;-75
2022/01/24 02:35:26;;;;;;;14.13;11.40;;;;;;;;;;5049114;28;20072;-74
2022/01/24 02:37:55;;;;;;;14.45;12.00;;;;;;;;;;5048628;28;20115;-76
2022/01/24 02:40:24;;;;;;;16.80;14.25;;;;;;;;;;5048805;28;20095;-75
2022/01/24 02:48:27;;;;;;;16.27;12.73;;;;;;;;;;5041793;28;20213;-75
2022/01/24 02:53:38;;;;;;;13.38;11.23;;;;;;;;;;5031171;28;20076;-76
2022/01/24 02:56:06;;;;;;;16.85;13.63;;;;;;;;;;5050155;28;20397;-75
2022/01/24 02:58:34;;;;;;;14.48;11.23;;;;;;;;;;5049439;28;20152;-75
2022/01/24 03:01:07;;;;;;;16.10;12.98;;;;;;;;;;5048368;28;20091;-77
2022/01/24 03:03:40;;;;;;;15.95;13.20;;;;;;;;;;5014436;28;20048;-76
2022/01/24 03:06:07;;;;;;;16.00;12.90;;;;;;;;;;5048662;28;20103;-75
2022/01/24 03:08:37;;;;;;;17.75;14.73;;;;;;;;;;5030894;28;20071;-75
2022/01/24 03:11:05;;;;;;;12.80;10.85;;;;;;;;;;5023285;28;20149;-75
2022/01/24 03:13:33;;;;;;;13.20;10.88;;;;;;;;;;5042246;28;20073;-76
2022/01/24 03:16:02;;;;;;;21.20;15.40;;;;;;;;;;5031165;28;20048;-76
2022/01/24 03:18:30;;;;;;;13.93;11.93;;;;;;;;;;5047552;28;20041;-76
2022/01/24 03:20:58;;;;;;;17.95;13.30;;;;;;;;;;5050366;28;20079;-77
2022/01/24 03:23:25;;;;;;;13.63;12.23;;;;;;;;;;5052525;28;20567;-75
2022/01/24 03:25:53;;;;;;;18.38;14.23;;;;;;;;;;5051890;28;20043;-76
2022/01/24 03:28:22;;;;;;;13.70;10.63;;;;;;;;;;5051377;28;20048;-75
2022/01/24 03:30:50;;;;;;;12.48;11.05;;;;;;;;;;5051532;28;20135;-75
2022/01/24 03:33:17;;;;;;;16.67;13.23;;;;;;;;;;5052193;28;20116;-75
2022/01/24 03:35:45;;;;;;;17.67;14.23;;;;;;;;;;5052127;28;20037;-75
2022/01/24 03:38:13;;;;;;;17.02;13.77;;;;;;;;;;5032669;28;20075;-75
2022/01/24 03:40:40;;;;;;;19.65;14.55;;;;;;;;;;5042647;28;20077;-75
2022/01/24 03:43:08;;;;;;;14.20;12.70;;;;;;;;;;5052218;28;20452;-76
2022/01/24 03:45:40;;;;;;;15.45;11.48;;;;;;;;;;5051708;28;20077;-75
2022/01/24 03:48:11;;;;;;;15.20;12.30;;;;;;;;;;5033875;28;20033;-77
2022/01/24 03:50:39;;;;;;;14.90;11.87;;;;;;;;;;5051096;28;20029;-75
2022/01/24 03:53:06;;;;;;;18.08;14.27;;;;;;;;;;5051249;28;20299;-75
2022/01/24 03:55:34;;;;;;;17.85;13.85;;;;;;;;;;5051698;28;20044;-76
2022/01/24 03:58:02;;;;;;;20.83;13.93;;;;;;;;;;5051684;28;20049;-75
2022/01/24 04:00:29;;;;;;;19.15;14.55;;;;;;;;;;5033275;28;20052;-76
2022/01/24 04:02:57;;;;;;;16.48;12.23;;;;;;;;;;5051807;28;20142;-75
2022/01/24 04:05:25;;;;;;;17.40;14.02;;;;;;;;;;5051569;28;20064;-76
2022/01/24 04:07:52;;;;;;;17.70;13.43;;;;;;;;;;5032989;28;20123;-75
2022/01/24 04:10:21;;;;;;;19.15;14.52;;;;;;;;;;5051382;28;20061;-76
2022/01/24 04:12:51;;;;;;;14.30;12.02;;;;;;;;;;5033450;28;20095;-76
2022/01/24 04:18:29;;;;;;;20.10;14.73;;;;;;;;;;5032061;28;20168;-75
2022/01/24 04:23:46;;;;;;;19.13;14.93;;;;;;;;;;5051498;28;20037;-75
2022/01/24 04:26:13;;;;;;;16.27;12.70;;;;;;;;;;5050182;28;20128;-75
2022/01/24 04:28:41;;;;;;;18.92;14.15;;;;;;;;;;5051584;28;20068;-76
2022/01/24 04:31:08;;;;;;;18.08;13.98;;;;;;;;;;5050528;28;20045;-75
2022/01/24 04:33:36;;;;;;;18.48;14.85;;;;;;;;;;5050675;28;20452;-75
2022/01/24 04:36:03;;;;;;;22.88;17.17;;;;;;;;;;5050839;28;20580;-76
2022/01/24 04:38:30;;;;;;;21.85;15.50;;;;;;;;;;5033610;28;20040;-76
2022/01/24 04:41:02;;;;;;;21.48;15.32;;;;;;;;;;5050634;28;20523;-75
2022/01/24 04:46:14;;;;;;;21.52;15.48;;;;;;;;;;5032342;28;20799;-75
2022/01/24 04:51:56;;;;;;;18.35;14.32;;;;;;;;;;5023663;28;20092;-76
2022/01/24 04:56:52;;;;;;;24.55;16.13;;;;;;;;;;5033135;28;20034;-77
2022/01/24 04:59:20;;;;;;;21.98;15.40;;;;;;;;;;5049887;28;20112;-76
2022/01/24 05:01:47;;;;;;;23.88;16.27;;;;;;;;;;5033151;28;20124;-75
2022/01/24 05:04:15;;;;;;;22.65;15.32;;;;;;;;;;5032340;28;20604;-76
2022/01/24 05:06:42;;;;;;;25.83;15.65;;;;;;;;;;5050546;28;20056;-76
2022/01/24 05:09:09;;;;;;;24.60;17.20;;;;;;;;;;5050673;28;20091;-75
2022/01/24 05:25:13;;;;;;;22.92;15.75;;;;;;;;;;5050502;28;20045;-75
2022/01/24 05:27:41;;;;;;;30.35;16.63;;;;;;;;;;5017389;28;20053;-75
2022/01/24 05:30:08;;;;;;;32.65;18.02;;;;;;;;;;5049535;28;20083;-75
2022/01/24 05:32:36;;;;;;;22.17;15.25;;;;;;;;;;5044453;28;20129;-76
2022/01/24 05:35:03;;;;;;;23.55;15.45;;;;;;;;;;5031661;28;20115;-76
2022/01/24 05:37:31;;;;;;;24.73;14.98;;;;;;;;;;5030756;28;20235;-76
2022/01/24 05:39:58;;;;;;;25.15;16.30;;;;;;;;;;5050136;28;20455;-76
2022/01/24 05:42:25;;;;;;;30.13;17.80;;;;;;;;;;5049318;28;20128;-75
2022/01/24 05:44:53;;;;;;;28.92;16.92;;;;;;;;;;5048918;28;20076;-75
2022/01/24 05:47:20;;;;;;;27.63;17.35;;;;;;;;;;5048280;28;20128;-76
2022/01/24 05:49:47;;;;;;;28.73;16.42;;;;;;;;;;5049823;28;20048;-76
2022/01/24 05:52:15;;;;;;;28.48;17.23;;;;;;;;;;5016702;28;20135;-76
2022/01/24 05:54:43;;;;;;;32.55;18.00;;;;;;;;;;5048458;28;20043;-76
2022/01/24 05:57:10;;;;;;;30.50;16.23;;;;;;;;;;5034659;28;20096;-76
2022/01/24 05:59:38;;;;;;;20.98;13.52;;;;;;;;;;5032333;28;20084;-77
2022/01/24 06:02:06;;;;;;;27.23;16.27;;;;;;;;;;5048524;28;20111;-75
2022/01/24 06:04:34;;;;;;;29.80;17.50;;;;;;;;;;5030513;28;20032;-76
2022/01/24 06:07:01;;;;;;;28.20;16.58;;;;;;;;;;5049627;28;20584;-76
2022/01/24 06:09:29;;;;;;;31.00;17.55;;;;;;;;;;5041230;28;20045;-76
2022/01/24 06:11:56;;;;;;;24.60;15.27;;;;;;;;;;5014794;28;20127;-75
2022/01/24 06:14:24;;;;;;;30.15;17.23;;;;;;;;;;5031662;28;20037;-76
2022/01/24 06:16:51;;;;;;;25.67;15.88;;;;;;;;;;5026714;28;20025;-76
2022/01/24 06:19:18;;;;;;;27.70;16.50;;;;;;;;;;5043774;28;20041;-75
2022/01/24 06:21:46;;;;;;;27.33;16.83;;;;;;;;;;5044529;28;20054;-75
2022/01/24 06:24:13;;;;;;;28.85;16.10;;;;;;;;;;5044960;28;20408;-76
2022/01/24 06:27:01;;;;;;;24.08;14.77;;;;;;;;;;5027175;28;20057;-75
2022/01/24 06:29:28;;;;;;;22.85;15.35;;;;;;;;;;5028247;28;20412;-75
2022/01/24 06:31:56;;;;;;;27.60;17.40;;;;;;;;;;5042520;28;20048;-74
2022/01/24 06:34:23;;;;;;;31.13;17.73;;;;;;;;;;5047630;28;20045;-76
2022/01/24 06:36:50;;;;;;;24.63;16.25;;;;;;;;;;5045042;28;20069;-75
2022/01/24 06:39:19;;;;;;;22.00;14.63;;;;;;;;;;5047701;28;20318;-77
2022/01/24 06:42:03;;;;;;;20.55;15.48;;;;;;;;;;5039112;28;20044;-75
2022/01/24 06:44:30;;;;;;;20.45;13.63;;;;;;;;;;5057425;28;20055;-75
2022/01/24 06:46:58;;;;;;;21.63;15.13;;;;;;;;;;5021165;28;20064;-77
2022/01/24 06:49:25;;;;;;;19.70;15.40;;;;;;;;;;5049941;28;20124;-76
2022/01/24 06:51:52;;;;;;;19.77;14.43;;;;;;;;;;5030457;28;20041;-75
2022/01/24 06:54:20;;;;;;;22.83;15.68;;;;;;;;;;5057222;28;20068;-76
2022/01/24 06:56:47;;;;;;;24.00;15.50;;;;;;;;;;5010631;28;20045;-75
2022/01/24 06:59:15;;;;;;;29.00;16.48;;;;;;;;;;5031350;28;20069;-75
2022/01/24 07:01:42;;;;;;;26.25;15.80;;;;;;;;;;5029011;28;20224;-75
2022/01/24 07:04:10;;;;;;;24.50;15.63;;;;;;;;;;5026949;28;20085;-75
2022/01/24 07:06:38;;;;;;;23.77;15.50;;;;;;;;;;5026397;28;20065;-75
2022/01/24 07:09:05;;;;;;;19.98;13.85;;;;;;;;;;5023409;28;20050;-75
2022/01/24 07:11:33;;;;;;;21.13;15.20;;;;;;;;;;5031941;28;20052;-78
2022/01/24 07:14:01;;;;;;;25.10;14.93;;;;;;;;;;5025482;28;20128;-74
2022/01/24 07:16:38;;;;;;;23.52;15.55;;;;;;;;;;5012125;28;20053;-74
2022/01/24 07:19:05;;;;;;;27.20;16.98;;;;;;;;;;5014212;28;20072;-75
2022/01/24 07:21:33;;;;;;;25.65;16.15;;;;;;;;;;5010174;28;20176;-76
2022/01/24 07:24:00;;;;;;;27.80;18.35;;;;;;;;;;5024776;28;20478;-75
2022/01/24 07:26:28;;;;;;;27.27;16.42;;;;;;;;;;5027428;28;20045;-75
2022/01/24 07:28:56;;;;;;;22.15;15.90;;;;;;;;;;5029464;28;20048;-74
2022/01/24 07:31:23;;;;;;;27.60;16.85;;;;;;;;;;5049807;28;20155;-75
2022/01/24 07:33:51;;;;;;;24.40;16.45;;;;;;;;;;5047160;28;20492;-74
2022/01/24 07:36:18;;;;;;;28.50;18.25;;;;;;;;;;5051622;28;20583;-76
2022/01/24 07:38:46;;;;;;;27.05;17.83;;;;;;;;;;5052280;28;20714;-75
2022/01/24 07:41:17;;;;;;;25.65;17.20;;;;;;;;;;5051766;28;20041;-74
2022/01/24 07:43:44;;;;;;;26.42;16.48;;;;;;;;;;5052725;28;20041;-75
2022/01/24 07:46:12;;;;;;;26.25;16.95;;;;;;;;;;5029653;28;20520;-75
2022/01/24 07:48:39;;;;;;;24.98;17.50;;;;;;;;;;5050244;28;20040;-76
2022/01/24 07:51:06;;;;;;;27.80;18.02;;;;;;;;;;5032359;28;20532;-75
2022/01/24 07:53:34;;;;;;;24.33;16.42;;;;;;;;;;5038885;28;20029;-75
2022/01/24 07:56:10;;;;;;;24.77;16.25;;;;;;;;;;5040105;28;20574;-75
2022/01/24 07:58:40;;;;;;;25.92;16.67;;;;;;;;;;5033365;28;20060;-76
2022/01/24 08:01:08;;;;;;;23.27;15.82;;;;;;;;;;5045198;28;20096;-75
2022/01/24 08:03:36;;;;;;;27.45;17.40;;;;;;;;;;5049734;28;20055;-75
2022/01/24 08:06:04;;;;;;;27.48;19.10;;;;;;;;;;5027842;28;20049;-75
2022/01/24 08:08:31;;;;;;;24.85;17.17;;;;;;;;;;5031835;28;20037;-75
2022/01/24 08:10:59;;;;;;;22.80;16.45;;;;;;;;;;5046732;28;20043;-75
2022/01/24 08:13:27;;;;;;;24.02;16.70;;;;;;;;;;5051516;28;20489;-75
2022/01/24 08:15:55;;;;;;;24.67;16.85;;;;;;;;;;5028645;28;20436;-76
2022/01/24 08:18:22;;;;;;;21.48;15.95;;;;;;;;;;5051463;28;20098;-77
2022/01/24 08:20:49;;;;;;;21.95;14.93;;;;;;;;;;5032483;28;20515;-75
2022/01/24 08:23:19;;;;;;;23.67;17.55;;;;;;;;;;5046729;28;20049;-75
2022/01/24 08:25:52;;;;;;;24.60;17.00;;;;;;;;;;5045169;28;20056;-75
2022/01/24 08:28:19;;;;;;;23.10;16.48;;;;;;;;;;5042372;28;20048;-76
2022/01/24 08:30:46;;;;;;;23.17;17.33;;;;;;;;;;5015565;28;20049;-75
2022/01/24 08:33:14;;;;;;;24.27;18.00;;;;;;;;;;5003645;28;20034;-75
2022/01/24 08:35:42;;;;;;;30.00;20.30;;;;;;;;;;5006772;28;20042;-75
2022/01/24 08:38:09;;;;;;;26.65;18.73;;;;;;;;;;5005845;28;20140;-74
2022/01/24 08:40:39;;;;;;;26.25;19.00;;;;;;;;;;5006736;28;20143;-75
2022/01/24 08:43:07;;;;;;;29.00;19.92;;;;;;;;;;5011001;28;20747;-75
2022/01/24 08:48:17;;;;;;;24.40;18.38;;;;;;;;;;5008685;28;20062;-75
2022/01/24 08:50:45;;;;;;;25.30;18.65;;;;;;;;;;5006915;28;20486;-74
2022/01/24 08:53:13;;;;;;;25.33;17.70;;;;;;;;;;4987260;28;20068;-74
2022/01/24 08:55:41;;;;;;;23.98;17.52;;;;;;;;;;5006494;28;20109;-74
2022/01/24 08:58:13;;;;;;;21.30;16.38;;;;;;;;;;5010489;28;20042;-74
2022/01/24 09:00:41;;;;;;;24.30;18.05;;;;;;;;;;5007084;28;20046;-75
2022/01/24 09:03:09;;;;;;;23.25;17.85;;;;;;;;;;5050539;28;20140;-74
2022/01/24 09:05:36;;;;;;;24.30;19.08;;;;;;;;;;5052256;28;20390;-74
2022/01/24 09:08:05;;;;;;;25.48;19.40;;;;;;;;;;5051967;28;20102;-75
2022/01/24 09:10:33;;;;;;;23.45;18.52;;;;;;;;;;5051757;28;20449;-76
2022/01/24 09:13:01;;;;;;;23.30;18.95;;;;;;;;;;5048544;28;20047;-74
2022/01/24 09:15:29;;;;;;;27.17;20.83;;;;;;;;;;5042175;28;20042;-74
2022/01/24 09:17:56;;;;;;;22.80;18.27;;;;;;;;;;5043166;28;20489;-76
2022/01/24 09:20:24;;;;;;;25.20;19.10;;;;;;;;;;5058837;28;20064;-74
2022/01/24 09:22:52;;;;;;;22.73;18.83;;;;;;;;;;5050232;28;20065;-75
2022/01/24 09:25:20;;;;;;;23.67;18.50;;;;;;;;;;5049215;28;20483;-74
2022/01/24 09:27:48;;;;;;;24.42;18.88;;;;;;;;;;5049798;28;20119;-74
2022/01/24 09:30:17;;;;;;;22.17;18.80;;;;;;;;;;5031874;28;20140;-75
2022/01/24 09:32:45;;;;;;;22.55;17.08;;;;;;;;;;5049054;28;20041;-77
2022/01/24 09:35:13;;;;;;;22.35;18.10;;;;;;;;;;5050076;28;20116;-74
2022/01/24 09:37:41;;;;;;;22.98;18.73;;;;;;;;;;5049138;28;20128;-74
2022/01/24 09:40:12;;;;;;;21.83;18.40;;;;;;;;;;5038088;28;20456;-74
2022/01/24 09:42:40;;;;;;;20.75;16.52;;;;;;;;;;5049319;28;20393;-74
2022/01/24 09:45:08;;;;;;;21.80;17.27;;;;;;;;;;5050447;28;20520;-74
2022/01/24 09:47:36;;;;;;;22.58;18.27;;;;;;;;;;5050085;28;20049;-74
2022/01/24 09:50:04;;;;;;;22.52;17.25;;;;;;;;;;5047831;28;20118;-74
2022/01/24 09:52:32;;;;;;;21.75;17.08;;;;;;;;;;5049529;28;20132;-74
2022/01/24 09:55:00;;;;;;;21.23;17.65;;;;;;;;;;5049067;28;20037;-74
2022/01/24 09:57:27;;;;;;;21.80;17.35;;;;;;;;;;5049582;28;20041;-75
2022/01/24 09:59:56;;;;;;;21.13;17.17;;;;;;;;;;5050123;28;20044;-74
2022/01/24 10:02:24;;;;;;;19.25;16.63;;;;;;;;;;5031700;28;20132;-75
2022/01/24 10:04:52;;;;;;;22.27;17.95;;;;;;;;;;5050224;28;20116;-74
2022/01/24 10:07:20;;;;;;;18.75;16.00;;;;;;;;;;5048412;28;20051;-74
2022/01/24 10:09:51;;;;;;;18.58;16.20;;;;;;;;;;5045133;28;20120;-75
2022/01/24 10:17:47;;;;;;;21.35;17.17;;;;;;;;;;5024782;28;20116;-74
2022/01/24 10:20:26;;;;;;;20.45;17.45;;;;;;;;;;5023663;28;20037;-74
2022/01/24 10:23:00;;;;;;;19.02;15.35;;;;;;;;;;5066091;28;20128;-74
2022/01/24 10:25:28;;;;;;;21.98;16.65;;;;;;;;;;5063845;28;20123;-75
2022/01/24 10:28:05;;;;;;;17.30;14.77;;;;;;;;;;5055874;28;20095;-75
2022/01/24 10:30:33;;;;;;;18.55;15.05;;;;;;;;;;5050732;28;20160;-74
2022/01/24 10:33:02;;;;;;;24.27;15.38;;;;;;;;;;5052285;28;20050;-77
2022/01/24 10:35:36;;;;;;;17.65;14.07;;;;;;;;;;5052011;28;20088;-74
2022/01/24 10:38:29;;;;;;;16.25;14.43;;;;;;;;;;5035126;28;20037;-74
2022/01/24 10:41:11;;;;;;;17.92;14.93;;;;;;;;;;5051884;28;20052;-75
2022/01/24 10:43:40;;;;;;;16.10;12.93;;;;;;;;;;5069892;28;20041;-74
2022/01/24 10:46:08;;;;;;;20.52;15.43;;;;;;;;;;5047766;28;20092;-75
2022/01/24 10:48:40;;;;;;;13.95;11.63;;;;;;;;;;5052817;28;20032;-75
2022/01/24 10:51:12;;;;;;;15.45;12.63;;;;;;;;;;5052129;28;20083;-76
2022/01/24 10:53:42;;;;;;;22.30;14.32;;;;;;;;;;5052750;28;20129;-76
2022/01/24 10:56:28;;;;;;;18.05;13.88;;;;;;;;;;5053054;28;20106;-74
2022/01/24 10:58:58;;;;;;;17.00;14.25;;;;;;;;;;5053020;28;20047;-74
2022/01/24 11:01:30;;;;;;;11.35;9.43;;;;;;;;;;5040427;28;20053;-76
2022/01/24 11:03:59;;;;;;;12.85;11.30;;;;;;;;;;5046112;28;20114;-73
2022/01/24 11:06:28;;;;;;;14.65;9.45;;;;;;;;;;5061022;28;20036;-75
2022/01/24 11:09:12;;;;;;;13.02;10.60;;;;;;;;;;5046770;28;20373;-74
2022/01/24 11:11:40;;;;;;;15.85;9.55;;;;;;;;;;5026380;28;20077;-75
2022/01/24 11:14:09;;;;;;;14.70;10.27;;;;;;;;;;5039953;28;20040;-76
2022/01/24 11:16:40;;;;;;;16.00;9.25;;;;;;;;;;5034711;28;20036;-74
2022/01/24 11:19:13;;;;;;;12.18;8.60;;;;;;;;;;5056537;28;20106;-74
2022/01/24 11:21:42;;;;;;;13.05;8.68;;;;;;;;;;5053873;28;20496;-74
2022/01/24 11:24:10;;;;;;;10.07;8.93;;;;;;;;;;5050372;28;20060;-73
2022/01/24 11:26:37;;;;;;;9.75;8.35;;;;;;;;;;5050636;28;20037;-74
2022/01/24 11:29:05;;;;;;;8.90;7.68;;;;;;;;;;5053517;28;20578;-74
2022/01/24 11:31:40;;;;;;;8.65;7.43;;;;;;;;;;5058944;28;20127;-72
2022/01/24 11:34:16;;;;;;;10.00;7.97;;;;;;;;;;5050642;28;20094;-75
2022/01/24 11:36:44;;;;;;;9.88;7.05;;;;;;;;;;5046770;28;20127;-75
2022/01/24 11:39:20;;;;;;;10.52;6.75;;;;;;;;;;5071817;28;20451;-74
2022/01/24 11:41:48;;;;;;;7.28;6.53;;;;;;;;;;5042445;28;20029;-74
2022/01/24 11:44:18;;;;;;;8.23;7.00;;;;;;;;;;5033069;28;20072;-74
2022/01/24 11:46:48;;;;;;;8.63;6.47;;;;;;;;;;5051525;28;20087;-74
2022/01/24 11:49:16;;;;;;;10.57;5.10;;;;;;;;;;5031873;28;20472;-76
2022/01/24 11:51:49;;;;;;;9.93;4.38;;;;;;;;;;5043111;28;20463;-75
2022/01/24 11:55:06;;;;;;;4.63;4.03;;;;;;;;;;5057258;28;20041;-74
2022/01/24 11:57:35;;;;;;;6.72;4.22;;;;;;;;;;4991387;28;20133;-74
2022/01/24 12:00:06;;;;;;;5.97;4.55;;;;;;;;;;4997920;28;20530;-74
2022/01/24 12:02:38;;;;;;;4.53;4.13;;;;;;;;;;5007485;28;20026;-74
2022/01/24 12:05:17;;;;;;;6.22;3.75;;;;;;;;;;4987199;28;20201;-76
2022/01/24 12:07:46;;;;;;;4.78;3.80;;;;;;;;;;4982914;28;20077;-74
2022/01/24 12:10:22;;;;;;;4.15;3.30;;;;;;;;;;5003994;28;20052;-74
2022/01/24 12:12:52;;;;;;;4.63;3.30;;;;;;;;;;5000016;28;20049;-74
2022/01/24 12:15:39;;;;;;;6.80;4.20;;;;;;;;;;5001239;28;20053;-74
2022/01/24 12:18:08;;;;;;;4.82;3.83;;;;;;;;;;4997305;28;20061;-75
2022/01/24 12:20:35;;;;;;;5.43;3.60;;;;;;;;;;5002419;28;20042;-74
2022/01/24 12:23:27;;;;;;;4.75;3.90;;;;;;;;;;5008267;28;20071;-74
2022/01/24 12:26:11;;;;;;;7.78;3.83;;;;;;;;;;4956199;28;20400;-74
2022/01/24 12:28:43;;;;;;;4.80;2.97;;;;;;;;;;4956101;28;20081;-74
2022/01/24 12:31:10;;;;;;;6.20;3.55;;;;;;;;;;4949698;28;20145;-74
2022/01/24 12:33:40;;;;;;;4.38;3.17;;;;;;;;;;4979618;28;20098;-75
2022/01/24 12:36:10;;;;;;;4.22;3.10;;;;;;;;;;4928577;29;20059;-75
2022/01/24 12:38:44;;;;;;;4.63;3.30;;;;;;;;;;4944127;29;20643;-74
2022/01/24 12:41:23;;;;;;;3.90;2.90;;;;;;;;;;4942271;28;20232;-75
2022/01/24 12:44:08;;;;;;;5.57;3.20;;;;;;;;;;4933184;29;20404;-75
2022/01/24 12:46:36;;;;;;;11.73;3.55;;;;;;;;;;4949978;28;20174;-74
2022/01/24 12:49:05;;;;;;;5.93;3.53;;;;;;;;;;4955926;28;20085;-74
2022/01/24 12:51:35;;;;;;;12.50;3.67;;;;;;;;;;4948130;28;20051;-75
2022/01/24 12:54:04;;;;;;;5.88;2.97;;;;;;;;;;4910282;29;20078;-76
2022/01/24 12:56:33;;;;;;;12.82;4.28;;;;;;;;;;4910992;29;20064;-75
2022/01/24 12:59:03;;;;;;;10.57;4.13;;;;;;;;;;4893364;29;20048;-75
2022/01/24 13:01:32;;;;;;;3.20;2.90;;;;;;;;;;4912315;29;20473;-75
2022/01/24 13:04:10;;;;;;;6.30;3.40;;;;;;;;;;4944456;29;20061;-76
2022/01/24 13:06:39;;;;;;;7.05;2.88;;;;;;;;;;4947336;28;21045;-74
2022/01/24 13:09:16;;;;;;;5.13;2.88;;;;;;;;;;4949388;28;20062;-74
2022/01/24 13:11:49;;;;;;;5.25;3.05;;;;;;;;;;4910180;28;20062;-74
2022/01/24 13:14:33;;;;;;;;;;;;;;;;;;4960077;28;20050;-75
2022/01/24 13:22:43;;;;;;;3.13;2.70;;;;;;;;;;4953128;28;20035;-74
2022/01/24 13:25:11;;;;;;;4.03;2.70;;;;;;;;;;4939618;28;20078;-76
2022/01/24 13:27:46;;;;;;;2.63;2.33;;;;;;;;;;4936003;28;20519;-78
2022/01/24 13:30:17;;;;;;;2.72;2.40;;;;;;;;;;4933738;28;20060;-78
2022/01/24 13:32:52;;;;;;;2.45;2.00;;;;;;;;;;4974682;28;20651;-75
2022/01/24 13:35:25;;;;;;;2.85;2.13;;;;;;;;;;4997604;28;20492;-77
2022/01/24 13:37:56;;;;;;;6.32;2.55;;;;;;;;;;4993226;28;20510;-77
2022/01/24 13:40:36;;;;;;;2.75;2.42;;;;;;;;;;4991168;28;20521;-75
2022/01/24 13:43:05;;;;;;;6.32;2.65;;;;;;;;;;4992981;28;20079;-76
2022/01/24 13:45:40;;;;;;;4.15;2.88;;;;;;;;;;4991896;28;20068;-74
2022/01/24 13:48:16;;;;;;;3.70;2.97;;;;;;;;;;4992893;28;20354;-75
2022/01/24 13:50:56;;;;;;;4.93;2.83;;;;;;;;;;5008412;28;20045;-75
2022/01/24 13:53:37;;;;;;;4.32;2.55;;;;;;;;;;5035477;28;20036;-76
2022/01/24 13:56:17;;;;;;;4.32;3.35;;;;;;;;;;5035049;28;20515;-74
2022/01/24 13:58:57;;;;;;;4.28;2.80;;;;;;;;;;5029838;28;20041;-77
2022/01/24 14:01:25;;;;;;;8.48;3.10;;;;;;;;;;5013629;28;20052;-75
2022/01/24 14:04:03;;;;;;;5.47;2.83;;;;;;;;;;5032802;28;20123;-76
2022/01/24 14:06:32;;;;;;;4.85;2.72;;;;;;;;;;5029010;28;20114;-77
2022/01/24 14:09:04;;;;;;;4.38;3.30;;;;;;;;;;5031039;28;20552;-76
2022/01/24 14:11:32;;;;;;;3.60;2.78;;;;;;;;;;5029147;28;20056;-75
2022/01/24 14:14:06;;;;;;;3.08;2.78;;;;;;;;;;5013026;28;20045;-76
2022/01/24 14:17:06;;;;;;;2.65;2.20;;;;;;;;;;5007958;28;20530;-76
2022/01/24 14:19:32;;;;;;;2.85;2.63;;;;;;;;;;5010050;28;20396;-74
2022/01/24 14:22:00;;;;;;;4.10;2.20;;;;;;;;;;5023295;28;20127;-79
2022/01/24 14:24:43;;;;;;;9.63;2.33;;;;;;;;;;5009517;28;20730;-76
2022/01/24 14:27:11;;;;;;;3.00;2.78;;;;;;;;;;5008120;28;20411;-75
2022/01/24 14:29:39;;;;;;;2.60;2.40;;;;;;;;;;5012748;28;20148;-76
2022/01/24 14:32:12;;;;;;;2.00;1.90;;;;;;;;;;5035087;28;20055;-75
2022/01/24 14:34:39;;;;;;;7.70;3.05;;;;;;;;;;5031572;28;20486;-76
2022/01/24 14:37:07;;;;;;;2.42;2.03;;;;;;;;;;5015554;28;20195;-74
2022/01/24 14:39:46;;;;;;;3.42;3.13;;;;;;;;;;5014731;28;20458;-77
2022/01/24 14:42:28;;;;;;;2.95;2.03;;;;;;;;;;5031627;28;20108;-76
2022/01/24 14:44:57;;;;;;;2.70;2.00;;;;;;;;;;5030336;28;20495;-76
2022/01/24 14:47:24;;;;;;;2.30;2.10;;;;;;;;;;5029264;28;20056;-76
2022/01/24 14:49:52;;;;;;;2.70;2.50;;;;;;;;;;5035006;28;20455;-75
2022/01/24 14:52:22;;;;;;;1.88;1.67;;;;;;;;;;5030031;28;20410;-76
2022/01/24 14:54:50;;;;;;;2.38;2.17;;;;;;;;;;5013316;28;20552;-76
2022/01/24 14:57:17;;;;;;;3.40;2.60;;;;;;;;;;5012564;28;20573;-77
2022/01/24 14:59:45;;;;;;;3.85;2.05;;;;;;;;;;5032356;28;20055;-75
2022/01/24 15:02:13;;;;;;;2.55;2.35;;;;;;;;;;5024943;28;20145;-76
2022/01/24 15:04:45;;;;;;;3.40;2.20;;;;;;;;;;5030131;28;20044;-75
2022/01/24 15:07:18;;;;;;;3.88;2.30;;;;;;;;;;5013349;28;20120;-76
2022/01/24 15:09:45;;;;;;;18.30;3.20;;;;;;;;;;5032871;28;20073;-75
2022/01/24 15:12:12;;;;;;;7.97;2.60;;;;;;;;;;5010839;28;20091;-75
2022/01/24 15:14:46;;;;;;;6.07;2.97;;;;;;;;;;5027016;28;20041;-77
2022/01/24 15:17:45;;;;;;;5.97;3.22;;;;;;;;;;5010889;28;20579;-75
2022/01/24 15:25:44;;;;;;;8.30;7.22;;;;;;;;;;5034418;28;20123;-77
2022/01/24 15:28:17;;;;;;;5.07;4.30;;;;;;;;;;5016188;28;20111;-77
2022/01/24 15:30:45;;;;;;;4.53;4.10;;;;;;;;;;5033554;28;20049;-75
2022/01/24 15:33:12;;;;;;;5.60;3.78;;;;;;;;;;5031969;28;20044;-76
2022/01/24 15:35:40;;;;;;;4.65;4.25;;;;;;;;;;5033724;28;20045;-76
2022/01/24 15:38:07;;;;;;;5.75;3.92;;;;;;;;;;5011446;28;20073;-76
2022/01/24 15:40:36;;;;;;;3.85;3.03;;;;;;;;;;5010765;28;20758;-75
2022/01/24 15:45:55;;;;;;;8.20;3.60;;;;;;;;;;5008543;28;20594;-75
2022/01/24 15:48:22;;;;;;;4.55;4.15;;;;;;;;;;5015048;28;20921;-75
2022/01/24 15:50:50;;;;;;;4.13;3.83;;;;;;;;;;5013152;28;20501;-75
2022/01/24 15:53:18;;;;;;;4.32;3.92;;;;;;;;;;5015106;28;20052;-75
2022/01/24 15:58:33;;;;;;;4.10;3.70;;;;;;;;;;4980712;28;20140;-75
2022/01/24 16:01:01;;;;;;;5.43;3.95;;;;;;;;;;4994976;28;20543;-76
2022/01/24 16:03:31;;;;;;;6.05;4.18;;;;;;;;;;5007813;28;20536;-76
2022/01/24 16:05:58;;;;;;;8.00;5.78;;;;;;;;;;5014138;28;20081;-74
2022/01/24 16:08:26;;;;;;;12.13;7.80;;;;;;;;;;5013141;28;20076;-76
2022/01/24 16:10:54;;;;;;;9.23;6.90;;;;;;;;;;5017933;28;20507;-74
2022/01/24 16:13:23;;;;;;;6.43;4.45;;;;;;;;;;5016285;28;20049;-74
2022/01/24 16:15:50;;;;;;;6.50;4.25;;;;;;;;;;5028787;28;20071;-74
2022/01/24 16:18:19;;;;;;;5.05;4.47;;;;;;;;;;5030360;28;20033;-74
2022/01/24 16:25:44;;;;;;;14.13;9.13;;;;;;;;;;5018513;28;20075;-75
2022/01/24 16:28:12;;;;;;;16.98;11.55;;;;;;;;;;4982640;28;20483;-76
2022/01/24 16:30:41;;;;;;;14.20;10.13;;;;;;;;;;5019849;28;20048;-74
2022/01/24 16:33:08;;;;;;;12.77;9.35;;;;;;;;;;5018341;28;20094;-74
2022/01/24 16:35:37;;;;;;;11.25;8.98;;;;;;;;;;5028363;28;20140;-75
2022/01/24 16:38:06;;;;;;;12.07;8.07;;;;;;;;;;5032787;28;20045;-76
2022/01/24 16:40:41;;;;;;;15.88;9.55;;;;;;;;;;5014727;28;20048;-76
2022/01/24 16:48:24;;;;;;;11.43;10.23;;;;;;;;;;5014179;28;20575;-74
2022/01/24 16:50:51;;;;;;;13.13;9.32;;;;;;;;;;5033276;28;20198;-76
2022/01/24 16:53:20;;;;;;;9.00;8.07;;;;;;;;;;5031158;28;20248;-75
2022/01/24 16:55:51;;;;;;;9.52;8.63;;;;;;;;;;5027771;28;20046;-74
2022/01/24 16:58:20;;;;;;;10.55;9.55;;;;;;;;;;5034753;28;20092;-74